Time;durP1;ratioP1;P1;durP2;ratioP2;P2;SDS_P1;SDS_P2;PMS_P1;PMS_P2;Temp;Humidity;BMP_temperature;BMP_pressure;BME280_temperature;BME280_humidity;BME280_pressure;Samples;Min_cycle;Max_cycle;Signal;HPM_P1;HPM_P2
2021/10/31 00:00:06;;;;;;;13.55;7.07;;;5.00;93.80;;;;;;5089127;28;20040;-78
2021/10/31 00:02:40;;;;;;;16.92;7.97;;;5.00;93.80;;;;;;5093288;28;20490;-79
2021/10/31 00:05:10;;;;;;;16.75;8.32;;;5.00;93.60;;;;;;5094565;28;20040;-79
2021/10/31 00:07:38;;;;;;;20.35;10.07;;;4.90;93.40;;;;;;5086698;28;20051;-79
2021/10/31 00:10:06;;;;;;;23.70;9.60;;;4.90;93.50;;;;;;5085502;28;20048;-78
2021/10/31 00:12:34;;;;;;;20.65;10.13;;;4.80;93.50;;;;;;5082757;28;20048;-78
2021/10/31 00:15:04;;;;;;;25.20;11.35;;;4.80;93.60;;;;;;5081890;28;20512;-79
2021/10/31 00:17:31;;;;;;;24.33;11.30;;;4.80;93.90;;;;;;5082850;28;20342;-78
2021/10/31 00:19:59;;;;;;;21.13;11.52;;;4.80;93.90;;;;;;5081677;28;20048;-78
2021/10/31 00:22:27;;;;;;;29.73;12.23;;;4.80;93.80;;;;;;5087723;28;20039;-78
2021/10/31 00:24:55;;;;;;;24.27;10.65;;;4.80;93.80;;;;;;5086275;28;20052;-78
2021/10/31 00:27:23;;;;;;;18.15;8.98;;;4.80;93.80;;;;;;5084204;28;20473;-78
2021/10/31 00:29:50;;;;;;;22.60;8.48;;;4.80;93.70;;;;;;5087675;28;20048;-78
2021/10/31 00:32:18;;;;;;;17.02;7.93;;;4.80;93.70;;;;;;5089392;28;20344;-78
2021/10/31 00:34:46;;;;;;;20.55;9.00;;;4.70;93.60;;;;;;5081390;28;20047;-78
2021/10/31 00:37:15;;;;;;;17.95;8.05;;;4.80;93.80;;;;;;5081022;28;20071;-79
2021/10/31 00:39:43;;;;;;;24.75;8.52;;;4.80;94.00;;;;;;5084733;28;20048;-78
2021/10/31 00:42:10;;;;;;;17.40;7.22;;;4.80;94.20;;;;;;5085321;28;20405;-78
2021/10/31 00:44:39;;;;;;;18.83;7.28;;;4.80;94.20;;;;;;5093583;28;20507;-78
2021/10/31 00:47:06;;;;;;;15.45;7.18;;;4.80;94.00;;;;;;5086271;28;20048;-79
2021/10/31 00:49:34;;;;;;;18.75;6.95;;;4.80;94.00;;;;;;5086090;28;20444;-78
2021/10/31 00:52:03;;;;;;;15.13;6.82;;;4.80;93.90;;;;;;5086578;28;20068;-78
2021/10/31 00:54:31;;;;;;;15.75;7.07;;;4.80;93.70;;;;;;5089045;28;20048;-78
2021/10/31 00:56:59;;;;;;;19.52;6.38;;;4.70;93.50;;;;;;5085975;28;20056;-78
2021/10/31 00:59:27;;;;;;;17.70;7.10;;;4.70;93.80;;;;;;5086559;28;20425;-78
2021/10/31 01:01:57;;;;;;;21.70;6.35;;;4.70;94.20;;;;;;5083589;28;20051;-78
2021/10/31 01:04:26;;;;;;;19.83;7.72;;;4.80;94.50;;;;;;5083200;28;20052;-79
2021/10/31 01:06:57;;;;;;;21.98;7.10;;;4.80;94.70;;;;;;5065592;28;20052;-78
2021/10/31 01:10:00;;;;;;;14.82;6.85;;;4.90;94.90;;;;;;5088920;28;20052;-78
2021/10/31 01:12:56;;;;;;;20.10;6.13;;;5.00;95.00;;;;;;5084525;28;20490;-78
2021/10/31 01:15:51;;;;;;;20.45;6.72;;;5.20;95.10;;;;;;5084857;28;20051;-78
2021/10/31 01:18:36;;;;;;;13.43;5.18;;;5.30;95.10;;;;;;5081492;28;20044;-79
2021/10/31 01:21:27;;;;;;;13.88;4.15;;;5.30;95.00;;;;;;5082816;28;20130;-79
2021/10/31 01:24:23;;;;;;;19.88;4.13;;;5.50;95.10;;;;;;5084965;28;20394;-79
2021/10/31 01:26:52;;;;;;;13.07;3.65;;;5.50;95.00;;;;;;5082487;28;20498;-79
2021/10/31 01:29:34;;;;;;;13.55;3.78;;;5.60;95.10;;;;;;5082251;28;20501;-79
2021/10/31 01:32:19;;;;;;;14.82;3.50;;;5.70;95.10;;;;;;5081977;28;20417;-79
2021/10/31 01:35:49;;;;;;;16.25;4.03;;;5.70;95.10;;;;;;5082521;28;20504;-79
2021/10/31 01:38:42;;;;;;;13.77;3.65;;;5.80;95.00;;;;;;5074874;28;20055;-79
2021/10/31 01:41:37;;;;;;;13.80;4.30;;;5.80;94.90;;;;;;5087151;28;20044;-79
2021/10/31 01:44:28;;;;;;;15.00;3.72;;;5.80;94.80;;;;;;5054963;28;20059;-79
2021/10/31 01:47:31;;;;;;;14.18;4.32;;;5.80;94.70;;;;;;5068445;28;20049;-79
2021/10/31 01:50:18;;;;;;;13.45;5.80;;;5.80;94.60;;;;;;5060436;28;20052;-79
2021/10/31 01:52:49;;;;;;;13.43;6.10;;;5.80;94.60;;;;;;5086339;28;20629;-79
2021/10/31 01:55:22;;;;;;;16.90;7.25;;;5.80;94.60;;;;;;5086490;28;20043;-79
2021/10/31 01:57:54;;;;;;;15.27;6.70;;;5.80;94.60;;;;;;5087342;28;20044;-79
2021/10/31 02:00:22;;;;;;;10.73;4.45;;;5.70;94.60;;;;;;5087586;28;20047;-79
2021/10/31 02:02:50;;;;;;;14.32;5.18;;;5.70;94.70;;;;;;5088047;28;20051;-79
2021/10/31 02:05:23;;;;;;;14.07;5.10;;;5.70;94.70;;;;;;5085536;28;20040;-80
2021/10/31 02:07:57;;;;;;;14.10;5.43;;;5.70;94.80;;;;;;5070785;28;20052;-80
2021/10/31 02:10:26;;;;;;;15.23;5.78;;;5.80;95.00;;;;;;5071146;28;20036;-80
2021/10/31 02:12:54;;;;;;;18.85;5.80;;;5.80;95.10;;;;;;5074418;28;20055;-80
2021/10/31 02:15:23;;;;;;;14.82;5.72;;;5.80;95.10;;;;;;5084120;28;20044;-80
2021/10/31 02:17:54;;;;;;;13.43;5.10;;;5.90;95.10;;;;;;5062985;28;20056;-80
2021/10/31 02:20:24;;;;;;;15.43;5.38;;;5.90;95.00;;;;;;5078423;28;20051;-80
2021/10/31 02:23:05;;;;;;;14.68;5.43;;;5.90;94.90;;;;;;5079904;28;20409;-79
2021/10/31 02:25:33;;;;;;;14.13;5.30;;;6.00;94.90;;;;;;5077143;28;20037;-79
2021/10/31 02:28:01;;;;;;;11.13;5.00;;;5.90;94.80;;;;;;5080253;28;20059;-78
2021/10/31 02:30:29;;;;;;;12.50;4.68;;;5.90;94.60;;;;;;5085511;28;20040;-79
2021/10/31 02:32:57;;;;;;;11.77;5.00;;;5.90;94.60;;;;;;5079140;28;20056;-79
2021/10/31 02:35:25;;;;;;;16.95;5.10;;;5.90;94.70;;;;;;5081720;28;21121;-79
2021/10/31 02:37:52;;;;;;;13.00;4.20;;;5.90;94.70;;;;;;5084532;28;20059;-79
2021/10/31 02:40:22;;;;;;;8.35;3.47;;;5.90;94.70;;;;;;5079809;28;20043;-79
2021/10/31 02:42:50;;;;;;;8.80;4.57;;;5.90;94.70;;;;;;5090594;28;20070;-79
2021/10/31 02:45:19;;;;;;;9.93;4.03;;;5.80;94.70;;;;;;5082599;28;20198;-79
2021/10/31 02:47:54;;;;;;;9.55;4.10;;;5.90;94.80;;;;;;5080320;28;20049;-79
2021/10/31 02:50:26;;;;;;;10.32;2.53;;;5.90;94.90;;;;;;5088045;28;20055;-79
2021/10/31 02:53:14;;;;;;;8.77;2.00;;;6.00;94.90;;;;;;5079664;28;20404;-79
2021/10/31 02:56:13;;;;;;;9.68;1.98;;;6.00;95.20;;;;;;5084548;28;20051;-79
2021/10/31 02:58:47;;;;;;;13.18;1.73;;;6.10;95.30;;;;;;5089448;28;20417;-79
2021/10/31 03:01:16;;;;;;;8.52;1.60;;;6.30;95.20;;;;;;5072486;28;20415;-79
2021/10/31 03:03:46;;;;;;;8.73;2.25;;;6.40;95.10;;;;;;5070095;28;20055;-79
2021/10/31 03:06:22;;;;;;;10.73;1.83;;;6.40;95.00;;;;;;5091244;28;20484;-79
2021/10/31 03:08:50;;;;;;;12.05;2.35;;;6.50;94.80;;;;;;5072168;28;20387;-79
2021/10/31 03:11:18;;;;;;;6.30;2.25;;;6.50;94.80;;;;;;5082133;28;20042;-79
2021/10/31 03:13:47;;;;;;;10.50;1.90;;;6.60;94.70;;;;;;5082883;28;20052;-79
2021/10/31 03:16:15;;;;;;;12.07;2.40;;;6.60;94.60;;;;;;5082715;28;20036;-79
2021/10/31 03:18:42;;;;;;;8.77;2.22;;;6.60;94.50;;;;;;5084717;28;20120;-79
2021/10/31 03:21:10;;;;;;;7.90;2.30;;;6.70;94.50;;;;;;5082490;28;20513;-79
2021/10/31 03:23:38;;;;;;;15.45;2.03;;;6.70;94.40;;;;;;5087118;28;20043;-79
2021/10/31 03:26:06;;;;;;;5.05;1.80;;;6.70;94.30;;;;;;5083856;28;20036;-79
2021/10/31 03:28:34;;;;;;;7.07;2.00;;;6.80;94.30;;;;;;5066362;28;20497;-80
2021/10/31 03:31:02;;;;;;;10.50;2.00;;;6.80;94.30;;;;;;5085507;28;20055;-79
2021/10/31 03:33:30;;;;;;;13.52;2.50;;;6.80;94.20;;;;;;5082706;28;20040;-79
2021/10/31 03:35:58;;;;;;;6.22;1.90;;;6.90;94.20;;;;;;5084527;28;20474;-79
2021/10/31 03:38:25;;;;;;;7.78;2.33;;;6.90;94.10;;;;;;5084517;28;20065;-79
2021/10/31 03:40:53;;;;;;;7.43;1.80;;;6.90;94.00;;;;;;5085607;28;20394;-80
2021/10/31 03:43:21;;;;;;;10.80;2.50;;;7.00;94.00;;;;;;5086775;28;20115;-78
2021/10/31 03:45:51;;;;;;;10.75;2.17;;;7.00;93.90;;;;;;5065867;28;20047;-79
2021/10/31 03:48:18;;;;;;;13.48;2.63;;;7.00;93.80;;;;;;5084246;28;20059;-79
2021/10/31 03:50:47;;;;;;;18.83;3.47;;;7.00;93.80;;;;;;5084016;28;20071;-79
2021/10/31 03:53:14;;;;;;;19.67;3.17;;;7.00;93.70;;;;;;5084639;28;20059;-79
2021/10/31 03:55:43;;;;;;;9.50;2.50;;;7.00;93.60;;;;;;5081873;28;20047;-79
2021/10/31 03:58:11;;;;;;;20.02;2.75;;;7.00;93.60;;;;;;5082320;28;20067;-79
2021/10/31 04:00:39;;;;;;;17.60;3.10;;;7.00;93.60;;;;;;5083973;28;20477;-79
2021/10/31 04:03:06;;;;;;;18.38;3.00;;;7.00;93.60;;;;;;5073164;28;20045;-79
2021/10/31 04:05:34;;;;;;;10.07;2.35;;;7.00;93.60;;;;;;5071875;28;20044;-79
2021/10/31 04:08:02;;;;;;;15.70;2.22;;;7.00;93.60;;;;;;5073330;28;20086;-79
2021/10/31 04:10:30;;;;;;;15.25;2.83;;;7.00;93.60;;;;;;5072775;28;20474;-79
2021/10/31 04:12:57;;;;;;;12.07;2.13;;;7.00;93.60;;;;;;5071677;28;20053;-79
2021/10/31 04:15:26;;;;;;;15.48;1.92;;;7.00;93.60;;;;;;5074709;28;20052;-79
2021/10/31 04:17:54;;;;;;;7.25;1.77;;;7.10;93.60;;;;;;5072346;28;20051;-79
2021/10/31 04:20:21;;;;;;;6.20;1.20;;;7.10;93.70;;;;;;5072143;28;20052;-79
2021/10/31 04:22:50;;;;;;;11.30;1.27;;;7.20;93.70;;;;;;5079703;28;20119;-79
2021/10/31 04:25:18;;;;;;;10.98;1.52;;;7.30;93.60;;;;;;5083472;28;20052;-79
2021/10/31 04:27:45;;;;;;;10.95;1.50;;;7.40;93.60;;;;;;5080961;28;20041;-79
2021/10/31 04:30:13;;;;;;;12.32;1.65;;;7.50;93.50;;;;;;5079604;28;20500;-79
2021/10/31 04:32:41;;;;;;;11.00;1.52;;;7.60;93.40;;;;;;5080312;28;20052;-79
2021/10/31 04:35:09;;;;;;;12.13;1.77;;;7.60;93.30;;;;;;5082267;28;20144;-80
2021/10/31 04:37:40;;;;;;;12.50;1.42;;;7.70;93.20;;;;;;5097665;28;20544;-79
2021/10/31 04:40:11;;;;;;;12.77;1.52;;;7.70;93.20;;;;;;5079894;28;20048;-79
2021/10/31 04:42:39;;;;;;;12.68;1.50;;;7.80;93.10;;;;;;5082418;28;20436;-80
2021/10/31 04:45:08;;;;;;;11.57;1.30;;;7.80;93.00;;;;;;5071937;28;20307;-79
2021/10/31 04:47:36;;;;;;;14.75;1.55;;;7.80;93.00;;;;;;5071235;28;20044;-79
2021/10/31 04:50:04;;;;;;;9.27;1.40;;;7.80;92.90;;;;;;5072119;28;20048;-79
2021/10/31 04:52:43;;;;;;;16.42;2.13;;;7.80;92.90;;;;;;5077195;28;20056;-79
2021/10/31 04:55:12;;;;;;;12.38;1.63;;;7.90;92.90;;;;;;5082503;28;20379;-79
2021/10/31 04:57:39;;;;;;;10.50;1.30;;;7.90;92.80;;;;;;5083462;28;20040;-79
2021/10/31 05:00:07;;;;;;;9.77;1.40;;;8.00;92.80;;;;;;5082627;28;20047;-79
2021/10/31 05:02:35;;;;;;;9.70;1.30;;;8.00;92.80;;;;;;5079749;28;20044;-79
2021/10/31 05:05:03;;;;;;;8.80;1.30;;;8.00;92.80;;;;;;5078427;28;20063;-79
2021/10/31 05:07:31;;;;;;;7.80;1.40;;;8.10;92.70;;;;;;5083185;28;20044;-79
2021/10/31 05:09:59;;;;;;;16.50;2.05;;;8.20;92.70;;;;;;5081058;28;20060;-79
2021/10/31 05:12:27;;;;;;;9.45;1.83;;;8.20;92.60;;;;;;5082606;28;20053;-79
2021/10/31 05:14:54;;;;;;;10.85;1.50;;;8.20;92.50;;;;;;5084732;28;20040;-79
2021/10/31 05:17:22;;;;;;;9.93;1.45;;;8.30;92.50;;;;;;5082010;28;20466;-79
2021/10/31 05:19:50;;;;;;;6.47;1.13;;;8.30;92.50;;;;;;5080313;28;20486;-80
2021/10/31 05:22:17;;;;;;;17.63;1.98;;;8.30;92.50;;;;;;5081898;28;20041;-80
2021/10/31 05:24:45;;;;;;;12.65;1.52;;;8.30;92.40;;;;;;5076535;28;20413;-79
2021/10/31 05:27:13;;;;;;;7.75;1.55;;;8.40;92.50;;;;;;5087862;28;20044;-79
2021/10/31 05:29:40;;;;;;;6.57;1.25;;;8.50;92.40;;;;;;5091155;28;20048;-79
2021/10/31 05:32:08;;;;;;;11.02;1.40;;;8.60;92.40;;;;;;5092534;28;20040;-79
2021/10/31 05:34:36;;;;;;;12.18;1.73;;;8.60;92.40;;;;;;5093236;28;20052;-79
2021/10/31 05:37:04;;;;;;;5.93;1.50;;;8.60;92.50;;;;;;5075788;28;20478;-79
2021/10/31 05:39:31;;;;;;;14.30;1.58;;;8.70;92.50;;;;;;5078257;28;20058;-79
2021/10/31 05:41:59;;;;;;;12.68;1.45;;;8.80;92.50;;;;;;5074364;28;20056;-79
2021/10/31 05:44:27;;;;;;;13.20;2.28;;;8.80;92.60;;;;;;5092722;28;20036;-80
2021/10/31 05:46:55;;;;;;;12.38;1.73;;;8.80;92.60;;;;;;5076124;28;20045;-79
2021/10/31 05:49:23;;;;;;;12.73;2.08;;;8.90;92.50;;;;;;5074904;28;20048;-79
2021/10/31 05:51:50;;;;;;;14.25;1.67;;;8.90;92.50;;;;;;5091747;28;20047;-79
2021/10/31 05:54:18;;;;;;;7.18;1.20;;;9.00;92.50;;;;;;5070858;28;20049;-79
2021/10/31 05:56:46;;;;;;;13.73;1.98;;;9.00;92.50;;;;;;5083378;28;20092;-79
2021/10/31 05:59:13;;;;;;;10.60;1.55;;;9.10;92.50;;;;;;5076294;28;20044;-79
2021/10/31 06:01:41;;;;;;;17.95;1.92;;;9.10;92.50;;;;;;5087563;28;20047;-79
2021/10/31 06:04:09;;;;;;;14.77;1.77;;;9.20;92.50;;;;;;5084316;28;20048;-79
2021/10/31 06:06:38;;;;;;;14.57;1.95;;;9.30;92.40;;;;;;5070702;28;20398;-79
2021/10/31 06:09:06;;;;;;;7.65;1.63;;;9.30;92.30;;;;;;5074231;28;20474;-79
2021/10/31 06:11:34;;;;;;;12.02;1.70;;;9.30;92.30;;;;;;5074812;28;20059;-79
2021/10/31 06:14:02;;;;;;;13.80;1.50;;;9.30;92.30;;;;;;5090882;28;20055;-79
2021/10/31 06:16:30;;;;;;;11.88;1.88;;;9.40;92.20;;;;;;5092051;28;20048;-79
2021/10/31 06:18:57;;;;;;;9.10;1.60;;;9.50;92.20;;;;;;5060312;28;20526;-80
2021/10/31 06:21:25;;;;;;;13.50;1.77;;;9.50;92.20;;;;;;5084245;28;20051;-79
2021/10/31 06:23:52;;;;;;;12.90;1.90;;;9.50;92.20;;;;;;5085873;28;20504;-79
2021/10/31 06:26:20;;;;;;;12.07;1.70;;;9.60;92.20;;;;;;5084335;28;20494;-79
2021/10/31 06:28:48;;;;;;;16.05;1.90;;;9.60;92.20;;;;;;5070796;28;20040;-79
2021/10/31 06:31:16;;;;;;;10.45;1.70;;;9.60;92.10;;;;;;5080814;28;20039;-80
2021/10/31 06:33:44;;;;;;;5.10;1.73;;;9.70;92.10;;;;;;5071266;28;20040;-80
2021/10/31 06:36:12;;;;;;;7.32;1.55;;;9.70;92.10;;;;;;5071873;28;20037;-79
2021/10/31 06:38:39;;;;;;;12.13;1.70;;;9.70;92.10;;;;;;5070695;28;20375;-79
2021/10/31 06:41:09;;;;;;;12.05;1.45;;;9.80;92.10;;;;;;5071266;28;20056;-79
2021/10/31 06:43:37;;;;;;;12.13;2.13;;;9.80;92.00;;;;;;5055145;28;20041;-79
2021/10/31 06:46:05;;;;;;;11.52;1.48;;;9.80;92.00;;;;;;5083833;28;20513;-80
2021/10/31 06:48:33;;;;;;;8.82;1.50;;;9.80;92.00;;;;;;5090303;28;20048;-80
2021/10/31 06:51:00;;;;;;;8.95;2.08;;;9.90;92.00;;;;;;5072722;28;20075;-80
2021/10/31 06:53:29;;;;;;;12.80;1.85;;;9.90;92.00;;;;;;5077368;28;20059;-80
2021/10/31 06:55:56;;;;;;;8.93;1.55;;;9.90;91.90;;;;;;5071883;28;20037;-80
2021/10/31 06:58:24;;;;;;;9.57;1.50;;;9.90;92.00;;;;;;5072637;28;20375;-80
2021/10/31 07:00:52;;;;;;;14.38;1.90;;;10.00;92.00;;;;;;5077015;28;20521;-78
2021/10/31 07:03:20;;;;;;;11.85;2.17;;;10.00;92.10;;;;;;5084232;28;20047;-78
2021/10/31 07:05:47;;;;;;;15.95;1.92;;;10.00;92.10;;;;;;5089200;28;20051;-79
2021/10/31 07:08:15;;;;;;;5.88;1.35;;;10.00;92.30;;;;;;5089499;28;20044;-78
2021/10/31 07:10:42;;;;;;;12.27;1.40;;;10.00;92.40;;;;;;5071886;28;20044;-77
2021/10/31 07:13:10;;;;;;;10.85;1.50;;;10.00;92.50;;;;;;5071558;28;20056;-75
2021/10/31 07:15:38;;;;;;;13.20;1.50;;;10.00;92.60;;;;;;5087334;28;20048;-74
2021/10/31 07:18:05;;;;;;;5.43;1.30;;;10.00;92.60;;;;;;5088842;28;20056;-73
2021/10/31 07:20:33;;;;;;;9.15;1.52;;;10.10;92.80;;;;;;5071152;28;20056;-72
2021/10/31 07:23:01;;;;;;;10.63;1.60;;;10.10;92.80;;;;;;5085688;28;20055;-72
2021/10/31 07:25:29;;;;;;;9.00;1.33;;;10.10;92.90;;;;;;5087469;28;20055;-72
2021/10/31 07:27:57;;;;;;;7.43;1.38;;;10.10;92.90;;;;;;5090694;28;20111;-73
2021/10/31 07:30:25;;;;;;;8.40;1.45;;;10.10;93.10;;;;;;5071684;28;20466;-73
2021/10/31 07:32:58;;;;;;;8.32;1.60;;;10.10;93.10;;;;;;5070797;28;20045;-73
2021/10/31 07:35:28;;;;;;;8.63;1.45;;;10.10;93.20;;;;;;5070975;28;20048;-74
2021/10/31 07:37:56;;;;;;;6.53;1.10;;;10.10;93.20;;;;;;5086929;28;20047;-73
2021/10/31 07:40:24;;;;;;;12.48;1.30;;;10.10;93.30;;;;;;5085093;28;20044;-73
2021/10/31 07:42:55;;;;;;;5.47;1.13;;;10.10;93.30;;;;;;5079935;28;20213;-74
2021/10/31 07:45:40;;;;;;;6.03;1.15;;;10.20;93.30;;;;;;5078269;28;20032;-73
2021/10/31 07:48:10;;;;;;;6.88;1.38;;;10.20;93.30;;;;;;5073682;28;20055;-74
2021/10/31 07:50:38;;;;;;;6.93;1.13;;;10.20;93.40;;;;;;5089413;28;20044;-74
2021/10/31 07:53:09;;;;;;;10.82;1.38;;;10.20;93.40;;;;;;5092336;28;20044;-74
2021/10/31 07:55:38;;;;;;;7.88;1.60;;;10.20;93.40;;;;;;5102899;28;20047;-73
2021/10/31 07:58:07;;;;;;;10.48;1.48;;;10.20;93.40;;;;;;5096889;28;20039;-74
2021/10/31 08:00:37;;;;;;;6.43;1.08;;;10.20;93.40;;;;;;5076239;28;20040;-73
2021/10/31 08:03:05;;;;;;;6.93;1.40;;;10.30;93.40;;;;;;5076262;28;20425;-72
2021/10/31 08:05:33;;;;;;;6.80;1.17;;;10.30;93.40;;;;;;5077858;28;20044;-72
2021/10/31 08:08:00;;;;;;;4.57;1.20;;;10.30;93.50;;;;;;5075254;28;20099;-72
2021/10/31 08:10:28;;;;;;;5.80;1.40;;;10.30;93.50;;;;;;5080677;28;20044;-72
2021/10/31 08:12:56;;;;;;;6.47;1.00;;;10.30;93.50;;;;;;5078446;28;20494;-72
2021/10/31 08:15:23;;;;;;;6.78;1.20;;;10.30;93.50;;;;;;5082891;28;20047;-72
2021/10/31 08:17:51;;;;;;;4.75;1.05;;;10.30;93.60;;;;;;5082576;28;20053;-72
2021/10/31 08:20:19;;;;;;;7.80;1.30;;;10.30;93.60;;;;;;5081513;28;20044;-72
2021/10/31 08:22:47;;;;;;;7.53;1.40;;;10.30;93.60;;;;;;5082887;28;20394;-72
2021/10/31 08:25:15;;;;;;;5.45;1.15;;;10.30;93.60;;;;;;5079586;28;20044;-71
2021/10/31 08:27:43;;;;;;;4.28;1.10;;;10.30;93.60;;;;;;5081076;28;20048;-71
2021/10/31 08:30:11;;;;;;;5.25;1.00;;;10.30;93.70;;;;;;5083710;28;20055;-71
2021/10/31 08:32:49;;;;;;;12.05;1.50;;;10.30;93.70;;;;;;5075425;28;20044;-71
2021/10/31 08:35:18;;;;;;;5.10;1.10;;;10.30;93.70;;;;;;5084873;28;20048;-71
2021/10/31 08:37:45;;;;;;;3.72;0.60;;;10.30;93.80;;;;;;5085803;28;20047;-71
2021/10/31 08:40:14;;;;;;;7.70;1.00;;;10.30;93.80;;;;;;5081066;28;20052;-71
2021/10/31 08:42:42;;;;;;;3.33;0.70;;;10.30;93.80;;;;;;5081117;28;20048;-71
2021/10/31 08:45:10;;;;;;;4.72;0.68;;;10.40;93.90;;;;;;5082203;28;20052;-72
2021/10/31 08:47:38;;;;;;;3.97;0.93;;;10.40;93.90;;;;;;5066541;28;20055;-72
2021/10/31 08:50:06;;;;;;;4.65;0.80;;;10.40;93.90;;;;;;5083262;28;20037;-71
2021/10/31 08:52:36;;;;;;;4.22;0.60;;;10.40;93.90;;;;;;5079269;28;20055;-72
2021/10/31 08:55:04;;;;;;;3.97;0.68;;;10.40;93.90;;;;;;5080842;28;20040;-71
2021/10/31 08:57:32;;;;;;;2.95;0.60;;;10.40;94.00;;;;;;5079807;28;20059;-72
2021/10/31 09:00:00;;;;;;;2.88;0.60;;;10.40;93.90;;;;;;5084345;28;20068;-71
2021/10/31 09:02:28;;;;;;;1.10;0.50;;;10.40;94.00;;;;;;5081483;28;20040;-72
2021/10/31 09:04:56;;;;;;;2.40;0.65;;;10.50;94.00;;;;;;5080984;28;20047;-72
2021/10/31 09:07:24;;;;;;;4.65;0.40;;;10.50;94.00;;;;;;5081524;28;20040;-73
2021/10/31 09:09:52;;;;;;;1.80;0.40;;;10.50;94.00;;;;;;5068503;28;20417;-72
2021/10/31 09:12:20;;;;;;;3.42;0.40;;;10.50;93.70;;;;;;5075838;28;20131;-72
2021/10/31 09:14:47;;;;;;;1.83;0.38;;;10.50;93.50;;;;;;5079866;28;20040;-72
2021/10/31 09:17:15;;;;;;;2.90;0.50;;;10.50;93.30;;;;;;5081494;28;20056;-71
2021/10/31 09:19:43;;;;;;;1.00;0.30;;;10.40;93.30;;;;;;5081623;28;20052;-71
2021/10/31 09:22:11;;;;;;;7.30;0.60;;;10.40;93.20;;;;;;5080675;28;20051;-72
2021/10/31 09:24:39;;;;;;;2.50;0.50;;;10.40;93.20;;;;;;5071056;28;20520;-71
2021/10/31 09:27:07;;;;;;;1.20;0.38;;;10.40;93.20;;;;;;5074408;28;20045;-71
2021/10/31 09:29:37;;;;;;;1.10;0.30;;;10.30;93.20;;;;;;5071317;28;20053;-73
2021/10/31 09:32:05;;;;;;;1.88;0.32;;;10.30;93.10;;;;;;5086604;28;20040;-70
2021/10/31 09:34:33;;;;;;;2.38;0.50;;;10.20;93.10;;;;;;5082833;28;20045;-71
2021/10/31 09:37:02;;;;;;;0.57;0.20;;;10.20;93.00;;;;;;5080276;28;20067;-72
2021/10/31 09:39:30;;;;;;;1.25;0.20;;;10.10;93.00;;;;;;5082448;28;20062;-71
2021/10/31 09:41:58;;;;;;;1.05;0.20;;;10.10;93.00;;;;;;5081255;28;20052;-71
2021/10/31 09:44:31;;;;;;;2.55;0.30;;;10.00;93.00;;;;;;5085651;28;20485;-72
2021/10/31 09:46:59;;;;;;;1.10;0.30;;;10.00;92.90;;;;;;5081623;28;20509;-72
2021/10/31 09:49:27;;;;;;;1.15;0.20;;;9.90;92.90;;;;;;5079514;28;20040;-72
2021/10/31 09:51:56;;;;;;;0.90;0.20;;;9.90;92.90;;;;;;5082226;28;20045;-72
2021/10/31 09:54:23;;;;;;;1.02;0.20;;;9.90;92.90;;;;;;5086249;28;20047;-72
2021/10/31 09:56:51;;;;;;;1.95;0.30;;;9.80;92.90;;;;;;5068447;28;20060;-72
2021/10/31 09:59:25;;;;;;;3.00;0.60;;;9.80;92.90;;;;;;5079605;28;20064;-73
2021/10/31 10:04:36;;;;;;;1.95;0.70;;;9.80;92.80;;;;;;5086135;28;20242;-73
2021/10/31 10:07:06;;;;;;;1.55;0.28;;;9.70;92.70;;;;;;5063390;28;20033;-73
2021/10/31 10:09:35;;;;;;;0.98;0.38;;;9.70;92.60;;;;;;5082478;28;20047;-73
2021/10/31 10:12:14;;;;;;;2.20;0.10;;;9.70;92.50;;;;;;5080333;28;20044;-73
2021/10/31 10:15:04;;;;;;;1.85;0.20;;;9.70;92.50;;;;;;5086696;28;20070;-72
2021/10/31 10:17:51;;;;;;;2.60;0.30;;;9.60;92.20;;;;;;5080610;28;20043;-71
2021/10/31 10:20:20;;;;;;;4.03;0.50;;;9.60;92.20;;;;;;5081445;28;20051;-71
2021/10/31 10:22:48;;;;;;;1.38;0.22;;;9.50;92.20;;;;;;5078122;28;20049;-77
2021/10/31 10:25:16;;;;;;;2.40;0.30;;;9.60;92.30;;;;;;5069017;28;20044;-72
2021/10/31 10:27:57;;;;;;;4.75;0.80;;;9.50;92.30;;;;;;5080460;28;20048;-72
2021/10/31 10:30:25;;;;;;;6.93;0.98;;;9.50;92.40;;;;;;5081734;28;20048;-73
2021/10/31 10:32:56;;;;;;;2.75;0.60;;;9.50;92.50;;;;;;5079621;28;20044;-73
2021/10/31 10:35:26;;;;;;;4.65;0.75;;;9.50;92.60;;;;;;5079922;28;20058;-74
2021/10/31 10:37:55;;;;;;;2.53;0.50;;;9.60;92.60;;;;;;5070641;28;20540;-74
2021/10/31 10:40:26;;;;;;;2.45;0.30;;;9.60;92.60;;;;;;5068773;28;20048;-75
2021/10/31 10:42:57;;;;;;;2.92;0.50;;;9.70;92.80;;;;;;5070238;28;20055;-76
2021/10/31 10:45:32;;;;;;;13.80;1.48;;;9.80;92.80;;;;;;5089297;28;20051;-75
2021/10/31 10:48:03;;;;;;;;;;;9.90;92.70;;;;;;5080837;28;20059;-76
2021/10/31 10:50:41;;;;;;;6.88;0.60;;;10.10;92.60;;;;;;5081862;28;20300;-76
2021/10/31 10:53:17;;;;;;;12.85;1.15;;;10.30;92.50;;;;;;5078136;28;20055;-76
2021/10/31 10:55:45;;;;;;;11.90;2.50;;;10.40;92.40;;;;;;5082596;28;20046;-76
2021/10/31 10:58:15;;;;;;;62.88;24.55;;;10.70;92.30;;;;;;5091642;28;20284;-77
2021/10/31 11:00:51;;;;;;;29.77;13.48;;;11.00;92.00;;;;;;5073549;28;20064;-78
2021/10/31 11:03:21;;;;;;;3.78;1.13;;;11.30;91.50;;;;;;5088452;28;20040;-78
2021/10/31 11:05:51;;;;;;;3.80;1.13;;;11.60;91.10;;;;;;5081009;28;20040;-81
2021/10/31 11:08:23;;;;;;;3.40;0.77;;;11.80;90.60;;;;;;5082512;28;20465;-79
2021/10/31 11:10:57;;;;;;;1.95;0.80;;;12.00;90.30;;;;;;5072745;28;20279;-80
2021/10/31 11:13:26;;;;;;;;;;;12.20;89.80;;;;;;5108359;28;20056;-78
2021/10/31 11:15:59;;;;;;;2.05;0.60;;;12.20;89.10;;;;;;5091147;28;20405;-78
2021/10/31 11:18:28;;;;;;;2.33;0.65;;;12.30;88.90;;;;;;5094775;28;20045;-77
2021/10/31 11:20:56;;;;;;;3.35;0.85;;;12.40;87.70;;;;;;5078055;28;20048;-78
2021/10/31 11:23:26;;;;;;;5.05;1.60;;;12.50;87.30;;;;;;5094815;28;20044;-78
2021/10/31 11:26:01;;;;;;;2.67;1.30;;;12.50;86.90;;;;;;5095685;28;20058;-79
2021/10/31 11:28:31;;;;;;;4.60;1.75;;;12.70;85.80;;;;;;5095814;28;20496;-81
2021/10/31 11:30:58;;;;;;;2.42;1.15;;;12.80;84.80;;;;;;5095838;28;20059;-78
2021/10/31 11:33:27;;;;;;;1.92;0.70;;;13.10;84.70;;;;;;5094311;28;20397;-79
2021/10/31 11:35:55;;;;;;;6.68;0.50;;;13.30;83.40;;;;;;5061172;28;20056;-79
2021/10/31 11:38:30;;;;;;;4.32;0.70;;;13.30;82.90;;;;;;5093861;28;20067;-79
2021/10/31 11:40:59;;;;;;;5.10;0.82;;;13.30;82.40;;;;;;5095442;28;20044;-78
2021/10/31 11:43:34;;;;;;;4.03;0.60;;;13.30;82.70;;;;;;5090766;28;20056;-79
2021/10/31 11:46:02;;;;;;;1.98;0.57;;;13.60;83.10;;;;;;5094518;28;20044;-78
2021/10/31 11:48:34;;;;;;;3.72;0.52;;;13.80;82.50;;;;;;5093381;28;20048;-79
2021/10/31 11:51:02;;;;;;;2.15;0.60;;;13.90;81.30;;;;;;5090833;28;20036;-79
2021/10/31 11:53:31;;;;;;;16.05;1.90;;;14.10;80.60;;;;;;5094206;28;20044;-77
2021/10/31 11:56:04;;;;;;;10.88;1.25;;;14.50;81.20;;;;;;5082847;28;20059;-79
2021/10/31 11:58:41;;;;;;;2.35;0.50;;;14.60;80.20;;;;;;5086779;28;20366;-79
2021/10/31 12:01:16;;;;;;;5.32;0.68;;;14.40;78.20;;;;;;5079207;28;20509;-79
2021/10/31 12:03:55;;;;;;;3.95;0.45;;;14.10;78.80;;;;;;5074799;28;20049;-78
2021/10/31 12:06:23;;;;;;;5.43;0.80;;;13.80;79.40;;;;;;5079629;28;20533;-78
2021/10/31 12:08:57;;;;;;;6.28;0.70;;;13.40;80.20;;;;;;5084722;28;20052;-78
2021/10/31 12:11:33;;;;;;;3.35;0.65;;;13.20;80.50;;;;;;5066228;28;20037;-78
2021/10/31 12:14:05;;;;;;;2.88;0.68;;;12.80;80.30;;;;;;5083592;28;20060;-78
2021/10/31 12:16:56;;;;;;;5.15;0.90;;;12.60;80.60;;;;;;5084303;28;20083;-77
2021/10/31 12:19:39;;;;;;;4.80;0.93;;;12.30;81.50;;;;;;5074376;28;20048;-77
2021/10/31 12:22:16;;;;;;;7.38;1.23;;;12.20;82.40;;;;;;5078125;28;20052;-77
2021/10/31 12:24:49;;;;;;;6.80;0.90;;;11.90;83.30;;;;;;5084413;28;20420;-73
2021/10/31 12:27:23;;;;;;;3.42;1.13;;;11.80;84.60;;;;;;5082471;28;20028;-71
2021/10/31 12:30:20;;;;;;;3.85;0.80;;;11.80;85.30;;;;;;5080598;28;20052;-71
2021/10/31 12:33:12;;;;;;;7.90;1.00;;;11.80;85.40;;;;;;5083039;28;20040;-73
2021/10/31 12:35:46;;;;;;;6.28;0.85;;;11.80;85.60;;;;;;5079886;28;20055;-73
2021/10/31 12:38:16;;;;;;;7.68;1.20;;;11.90;85.60;;;;;;5072737;28;20045;-74
2021/10/31 12:41:11;;;;;;;5.88;1.00;;;11.80;85.50;;;;;;5078342;28;20060;-74
2021/10/31 12:43:52;;;;;;;4.65;1.00;;;12.00;85.90;;;;;;5079793;28;20044;-74
2021/10/31 12:46:27;;;;;;;7.10;1.20;;;12.30;84.80;;;;;;5072643;28;20045;-74
2021/10/31 12:49:01;;;;;;;6.25;0.93;;;12.30;84.30;;;;;;5063395;28;20052;-74
2021/10/31 12:54:23;;;;;;;7.53;1.58;;;12.40;83.60;;;;;;5078166;28;20051;-75
2021/10/31 12:56:52;;;;;;;5.97;1.42;;;12.40;83.40;;;;;;5070759;28;20493;-76
2021/10/31 12:59:20;;;;;;;9.30;1.55;;;12.30;83.70;;;;;;5074537;28;20063;-76
2021/10/31 13:02:02;;;;;;;4.43;1.15;;;12.10;83.90;;;;;;5073426;28;20044;-77
2021/10/31 13:04:45;;;;;;;;;;;12.00;84.10;;;;;;5073857;28;20044;-76
2021/10/31 13:07:13;;;;;;;4.95;0.90;;;11.90;84.50;;;;;;5074039;28;19928;-75
2021/10/31 13:09:41;;;;;;;7.00;1.00;;;12.30;83.70;;;;;;5072238;28;20053;-74
2021/10/31 13:12:26;;;;;;;4.75;0.70;;;13.00;81.60;;;;;;5071813;28;20045;-76